createdAt,value
2019-05-01T00:00:34.404Z,13.83
2019-05-01T00:03:22.141Z,13.85
2019-05-01T00:06:00.035Z,13.88
2019-05-01T00:08:36.049Z,13.89
2019-05-01T00:11:12.260Z,13.88
2019-05-01T00:13:47.452Z,13.87
2019-05-01T00:16:23.298Z,13.92
2019-05-01T00:18:59.208Z,13.96
2019-05-01T00:21:34.612Z,13.99
2019-05-01T00:24:10.062Z,14.02
2019-05-01T00:26:45.205Z,14.05
2019-05-01T00:29:20.674Z,14.06
2019-05-01T00:31:56.725Z,14.07
2019-05-01T00:34:31.792Z,14.06
2019-05-01T00:37:06.962Z,14.08
2019-05-01T00:39:43.346Z,14.09
2019-05-01T00:42:18.479Z,14.11
2019-05-01T00:44:53.875Z,14.12
2019-05-01T00:47:28.973Z,14.09
2019-05-01T00:50:06.841Z,14.08
2019-05-01T00:52:41.915Z,14.07
2019-05-01T00:55:36.476Z,14.04
2019-05-01T00:58:23.622Z,14.05
2019-05-01T01:01:10.299Z,14.08
2019-05-01T01:03:46.080Z,14.11
2019-05-01T01:06:21.177Z,14.14
2019-05-01T01:08:56.239Z,14.14
2019-05-01T01:11:31.573Z,14.14
2019-05-01T01:14:06.741Z,14.15
2019-05-01T01:16:42.872Z,14.16
2019-05-01T01:19:19.182Z,14.19
2019-05-01T01:21:55.709Z,14.17
2019-05-01T01:24:31.162Z,14.17
2019-05-01T01:27:06.306Z,14.19
2019-05-01T01:29:41.422Z,14.20
2019-05-01T01:32:16.851Z,14.19
2019-05-01T01:34:52.124Z,14.15
2019-05-01T01:37:27.219Z,14.09
2019-05-01T01:40:04.538Z,14.05
2019-05-01T01:42:40.648Z,13.99
2019-05-01T01:45:35.284Z,13.95
2019-05-01T01:48:12.463Z,13.96
2019-05-01T01:50:48.035Z,13.95
2019-05-01T01:53:23.767Z,13.92
2019-05-01T01:55:58.966Z,13.90
2019-05-01T01:58:34.027Z,13.83
2019-05-01T02:01:28.651Z,13.79
2019-05-01T02:04:05.404Z,13.74
2019-05-01T02:06:41.170Z,13.65
2019-05-01T02:09:16.275Z,13.58
2019-05-01T02:11:52.365Z,13.60
2019-05-01T02:14:27.515Z,13.57
2019-05-01T02:17:02.578Z,13.55
2019-05-01T02:19:38.387Z,13.56
2019-05-01T02:22:13.447Z,13.55
2019-05-01T02:24:48.844Z,13.53
2019-05-01T02:27:29.031Z,13.48
2019-05-01T02:30:07.256Z,13.44
2019-05-01T02:32:42.772Z,13.41
2019-05-01T02:35:17.907Z,13.38
2019-05-01T02:37:55.652Z,13.38
2019-05-01T02:40:42.971Z,13.37
2019-05-01T02:43:20.087Z,13.35
2019-05-01T02:45:56.293Z,13.33
2019-05-01T02:48:33.258Z,13.28
2019-05-01T02:51:08.828Z,13.25
2019-05-01T02:53:45.282Z,13.17
2019-05-01T02:56:39.890Z,13.12
2019-05-01T02:59:15.314Z,13.10
2019-05-01T03:01:50.730Z,13.07
2019-05-01T03:04:26.021Z,13.08
2019-05-01T03:07:02.584Z,13.04
2019-05-01T03:09:37.919Z,13.00
2019-05-01T03:12:14.433Z,12.97
2019-05-01T03:14:51.890Z,12.91
2019-05-01T03:17:45.645Z,12.85
2019-05-01T03:20:25.237Z,12.87
2019-05-01T03:23:20.249Z,12.90
2019-05-01T03:25:55.348Z,12.92
2019-05-01T03:28:30.418Z,12.90
2019-05-01T03:31:05.965Z,12.90
2019-05-01T03:33:42.064Z,12.90
2019-05-01T03:36:17.496Z,12.86
2019-05-01T03:38:52.722Z,12.84
2019-05-01T03:41:28.171Z,12.83
2019-05-01T03:44:04.557Z,12.80
2019-05-01T03:46:39.655Z,12.78
2019-05-01T03:49:16.157Z,12.73
2019-05-01T03:51:51.254Z,12.69
2019-05-01T03:54:26.623Z,12.62
2019-05-01T03:57:02.187Z,12.58
2019-05-01T03:59:38.510Z,12.52
2019-05-01T04:02:34.388Z,12.49
2019-05-01T04:05:09.723Z,12.45
2019-05-01T04:07:45.213Z,12.44
2019-05-01T04:10:21.674Z,12.43
2019-05-01T04:12:57.682Z,12.39
2019-05-01T04:15:32.728Z,12.35
2019-05-01T04:18:09.416Z,12.34
2019-05-01T04:20:45.914Z,12.32
2019-05-01T04:23:21.181Z,12.28
2019-05-01T04:25:56.414Z,12.21
2019-05-01T04:28:46.638Z,12.14
2019-05-01T04:31:26.798Z,12.07
2019-05-01T04:34:06.938Z,12.04
2019-05-01T04:36:46.768Z,12.00
2019-05-01T04:39:22.914Z,12.00
2019-05-01T04:41:58.970Z,11.98
2019-05-01T04:44:34.114Z,11.92
2019-05-01T04:47:09.753Z,11.91
2019-05-01T04:49:44.817Z,11.89
2019-05-01T04:52:21.563Z,11.87
2019-05-01T04:54:57.543Z,11.88
2019-05-01T04:57:33.071Z,11.89
2019-05-01T05:00:08.226Z,11.85
2019-05-01T05:03:03.874Z,11.87
2019-05-01T05:05:28.523Z,11.83
2019-05-01T05:08:04.298Z,11.81
2019-05-01T05:10:39.639Z,11.83
2019-05-01T05:13:17.355Z,11.81
2019-05-01T05:15:57.394Z,11.84
2019-05-01T05:18:32.753Z,11.90
2019-05-01T05:21:08.619Z,11.92
2019-05-01T05:23:44.069Z,11.96
2019-05-01T05:26:20.824Z,11.99
2019-05-01T05:28:57.679Z,11.99
2019-05-01T05:31:32.864Z,11.98
2019-05-01T05:34:11.138Z,12.05
2019-05-01T05:36:46.794Z,12.15
2019-05-01T05:39:34.199Z,12.17
2019-05-01T05:42:09.872Z,12.18
2019-05-01T05:44:46.532Z,12.27
2019-05-01T05:47:21.587Z,12.36
2019-05-01T05:49:57.730Z,12.49
2019-05-01T05:52:45.493Z,12.63
2019-05-01T05:55:36.836Z,12.75
2019-05-01T05:58:14.828Z,12.77
2019-05-01T06:00:53.134Z,12.86
2019-05-01T06:03:48.269Z,12.90
2019-05-01T06:06:28.168Z,12.95
2019-05-01T06:09:08.926Z,12.96
2019-05-01T06:12:05.032Z,12.99
2019-05-01T06:15:02.474Z,13.10
2019-05-01T06:17:38.186Z,13.20
2019-05-01T06:20:26.015Z,13.07
2019-05-01T06:23:10.025Z,12.99
2019-05-01T06:25:54.284Z,12.90
2019-05-01T06:28:29.724Z,12.82
2019-05-01T06:31:06.151Z,12.65
2019-05-01T06:33:44.362Z,12.63
2019-05-01T06:36:18.456Z,12.61
2019-05-01T06:38:54.121Z,12.59
2019-05-01T06:41:33.850Z,12.60
2019-05-01T06:44:09.966Z,12.67
2019-05-01T06:47:05.147Z,12.72
2019-05-01T06:49:55.350Z,12.77
2019-05-01T06:52:30.999Z,12.86
2019-05-01T06:55:07.155Z,12.95
2019-05-01T06:57:44.095Z,13.00
2019-05-01T07:00:21.855Z,13.12
2019-05-01T07:02:58.271Z,13.23
2019-05-01T07:05:33.339Z,13.24
2019-05-01T07:08:23.778Z,13.32
2019-05-01T07:10:48.023Z,13.30
2019-05-01T07:13:23.101Z,13.27
2019-05-01T07:16:02.967Z,13.19
2019-05-01T07:18:37.240Z,13.07
2019-05-01T07:21:12.329Z,12.91
2019-05-01T07:23:52.208Z,12.78
2019-05-01T07:26:24.871Z,12.82
2019-05-01T07:29:06.072Z,12.74
2019-05-01T07:31:39.461Z,12.82
2019-05-01T07:34:16.903Z,12.98
2019-05-01T07:36:52.186Z,13.17
2019-05-01T07:39:28.289Z,13.42
2019-05-01T07:42:14.287Z,13.60
2019-05-01T07:45:08.235Z,14.05
2019-05-01T07:47:46.430Z,14.12
2019-05-01T07:50:24.281Z,14.09
2019-05-01T07:53:00.207Z,14.02
2019-05-01T07:55:39.210Z,13.94
2019-05-01T07:58:16.227Z,13.97
2019-05-01T08:01:18.456Z,14.34
2019-05-01T08:03:54.199Z,14.59
2019-05-01T08:06:29.451Z,15.12
2019-05-01T08:09:06.439Z,15.12
2019-05-01T08:11:44.035Z,15.35
2019-05-01T08:14:20.845Z,15.46
2019-05-01T08:16:57.316Z,15.59
2019-05-01T08:19:41.151Z,15.68
2019-05-01T08:22:18.509Z,16.25
2019-05-01T08:24:58.562Z,16.26
2019-05-01T08:27:38.713Z,16.40
2019-05-01T08:30:22.069Z,16.24
2019-05-01T08:33:09.856Z,16.65
2019-05-01T08:35:47.705Z,17.25
2019-05-01T08:38:22.817Z,17.62
2019-05-01T08:40:58.875Z,18.14
2019-05-01T08:43:36.715Z,18.65
2019-05-01T08:46:21.487Z,18.32
2019-05-01T08:49:13.711Z,17.97
2019-05-01T08:51:51.067Z,18.72
2019-05-01T08:54:38.687Z,18.59
2019-05-01T08:57:16.128Z,18.70
2019-05-01T09:00:00.300Z,18.20
2019-05-01T09:02:36.743Z,17.64
2019-05-01T09:05:28.883Z,18.04
2019-05-01T09:07:57.737Z,18.77
2019-05-01T09:10:34.466Z,18.89
2019-05-01T09:13:13.999Z,19.08
2019-05-01T09:15:50.970Z,18.96
2019-05-01T09:18:33.099Z,19.11
2019-05-01T09:21:13.228Z,19.11
2019-05-01T09:23:51.382Z,18.69
2019-05-01T09:26:30.274Z,18.51
2019-05-01T09:29:16.078Z,17.98
2019-05-01T09:31:52.087Z,17.90
2019-05-01T09:34:29.156Z,17.87
2019-05-01T09:37:04.786Z,18.11
2019-05-01T09:39:40.405Z,18.15
2019-05-01T09:42:22.761Z,18.48
2019-05-01T09:44:53.009Z,18.85
2019-05-01T09:47:29.086Z,19.08
2019-05-01T09:50:08.234Z,18.74
2019-05-01T09:52:55.121Z,18.59
2019-05-01T09:55:38.349Z,18.70
2019-05-01T09:58:13.488Z,19.89
2019-05-01T10:00:52.655Z,21.06
2019-05-01T10:03:26.620Z,21.54
2019-05-01T10:06:05.812Z,21.98
2019-05-01T10:08:41.937Z,21.77
2019-05-01T10:11:17.865Z,22.02
2019-05-01T10:13:53.661Z,23.05
2019-05-01T10:16:33.240Z,24.33
2019-05-01T10:19:09.436Z,25.00
2019-05-01T10:21:45.864Z,25.58
2019-05-01T10:24:22.244Z,25.87
2019-05-01T10:27:01.573Z,25.51
2019-05-01T10:29:47.666Z,24.65
2019-05-01T10:32:32.800Z,25.15
2019-05-01T10:35:14.252Z,25.43
2019-05-01T10:37:47.114Z,25.14
2019-05-01T10:40:26.994Z,24.98
2019-05-01T10:43:01.606Z,25.03
2019-05-01T10:45:37.458Z,24.72
2019-05-01T10:48:12.704Z,24.69
2019-05-01T10:50:51.006Z,24.74
2019-05-01T10:53:43.235Z,24.51
2019-05-01T10:56:20.732Z,24.75
2019-05-01T10:58:55.871Z,24.46
2019-05-01T11:01:45.857Z,24.91
2019-05-01T11:04:21.996Z,25.60
2019-05-01T11:06:59.223Z,26.07
2019-05-01T11:09:34.688Z,26.41
2019-05-01T11:12:10.838Z,25.37
2019-05-01T11:14:59.601Z,25.24
2019-05-01T11:17:36.591Z,25.56
2019-05-01T11:20:14.268Z,24.67
2019-05-01T11:22:52.898Z,24.18
2019-05-01T11:25:28.638Z,24.38
2019-05-01T11:28:05.088Z,23.98
2019-05-01T11:30:44.322Z,23.64
2019-05-01T11:33:24.498Z,23.40
2019-05-01T11:36:16.708Z,23.57
2019-05-01T11:39:02.293Z,23.39
2019-05-01T11:41:47.658Z,24.03
2019-05-01T11:44:23.220Z,24.86
2019-05-01T11:46:58.496Z,24.81
2019-05-01T11:49:33.776Z,25.54
2019-05-01T11:52:09.942Z,25.54
2019-05-01T11:54:45.027Z,25.76
2019-05-01T11:57:20.220Z,25.61
2019-05-01T11:59:55.342Z,26.65
2019-05-01T12:02:35.374Z,26.39
2019-05-01T12:05:13.938Z,25.44
2019-05-01T12:07:50.141Z,25.66
2019-05-01T12:10:25.758Z,26.17
2019-05-01T12:13:01.722Z,26.69
2019-05-01T12:15:45.530Z,26.44
2019-05-01T12:18:20.771Z,26.70
2019-05-01T12:20:57.025Z,25.88
2019-05-01T12:23:32.473Z,25.46
2019-05-01T12:26:09.336Z,25.46
2019-05-01T12:28:45.377Z,26.15
2019-05-01T12:31:21.652Z,26.94
2019-05-01T12:33:57.280Z,27.44
2019-05-01T12:36:36.513Z,26.42
2019-05-01T12:39:19.381Z,25.33
2019-05-01T12:41:56.219Z,24.97
2019-05-01T12:44:32.548Z,25.18
2019-05-01T12:47:18.336Z,27.14
2019-05-01T12:49:54.707Z,27.04
2019-05-01T12:52:38.640Z,27.04
2019-05-01T12:55:41.725Z,26.43
2019-05-01T12:58:16.946Z,25.80
2019-05-01T13:00:55.724Z,25.46
2019-05-01T13:03:33.624Z,23.87
2019-05-01T13:06:10.150Z,23.84
2019-05-01T13:08:45.690Z,23.87
2019-05-01T13:11:22.594Z,24.01
2019-05-01T13:14:00.312Z,24.70
2019-05-01T13:16:44.378Z,24.68
2019-05-01T13:19:23.947Z,24.77
2019-05-01T13:22:00.996Z,26.09
2019-05-01T13:24:38.112Z,26.24
2019-05-01T13:27:31.346Z,25.87
2019-05-01T13:30:21.470Z,26.33
2019-05-01T13:33:00.811Z,26.65
2019-05-01T13:35:36.437Z,26.77
2019-05-01T13:38:11.794Z,26.94
2019-05-01T13:40:47.030Z,27.18
2019-05-01T13:43:24.465Z,27.34
2019-05-01T13:46:00.514Z,27.10
2019-05-01T13:48:37.153Z,27.69
2019-05-01T13:51:14.989Z,28.02
2019-05-01T13:53:50.278Z,27.93
2019-05-01T13:56:28.575Z,27.60
2019-05-01T13:59:06.125Z,27.26
2019-05-01T14:01:41.799Z,28.17
2019-05-01T14:04:21.657Z,28.45
2019-05-01T14:06:58.326Z,28.05
2019-05-01T14:09:36.313Z,27.51
2019-05-01T14:12:13.099Z,27.45
2019-05-01T14:14:48.938Z,27.45
2019-05-01T14:17:25.157Z,27.14
2019-05-01T14:20:03.277Z,27.14
2019-05-01T14:22:54.580Z,28.18
2019-05-01T14:25:33.419Z,27.64
2019-05-01T14:28:11.042Z,26.73
2019-05-01T14:30:49.875Z,27.11
2019-05-01T14:33:25.597Z,26.94
2019-05-01T14:36:05.720Z,27.33
2019-05-01T14:38:41.126Z,26.60
2019-05-01T14:41:18.419Z,27.00
2019-05-01T14:43:53.907Z,27.38
2019-05-01T14:46:34.816Z,27.71
2019-05-01T14:49:10.085Z,27.98
2019-05-01T14:51:47.062Z,28.01
2019-05-01T14:54:22.793Z,27.91
2019-05-01T14:56:58.213Z,27.06
2019-05-01T14:59:37.271Z,26.42
2019-05-01T15:02:16.432Z,26.75
2019-05-01T15:04:52.605Z,25.82
2019-05-01T15:07:43.215Z,25.92
2019-05-01T15:10:16.096Z,25.70
2019-05-01T15:12:55.000Z,26.11
2019-05-01T15:15:35.218Z,26.46
2019-05-01T15:18:14.011Z,26.75
2019-05-01T15:20:50.108Z,27.14
2019-05-01T15:23:26.289Z,26.52
2019-05-01T15:26:02.154Z,26.32
2019-05-01T15:28:38.211Z,26.53
2019-05-01T15:31:14.405Z,27.01
2019-05-01T15:33:52.236Z,27.25
2019-05-01T15:36:28.402Z,27.07
2019-05-01T15:39:05.886Z,26.34
2019-05-01T15:41:53.394Z,26.23
2019-05-01T15:44:33.230Z,26.32
2019-05-01T15:47:09.943Z,25.59
2019-05-01T15:49:46.586Z,26.05
2019-05-01T15:52:25.512Z,26.42
2019-05-01T15:55:04.475Z,26.08
2019-05-01T15:57:44.129Z,26.02
2019-05-01T16:00:22.490Z,26.30
2019-05-01T16:03:00.905Z,26.28
2019-05-01T16:05:36.362Z,25.96
2019-05-01T16:08:14.929Z,25.42
2019-05-01T16:11:08.204Z,24.85
2019-05-01T16:13:43.676Z,25.11
2019-05-01T16:16:19.070Z,25.19
2019-05-01T16:18:56.174Z,25.16
2019-05-01T16:21:37.872Z,24.38
2019-05-01T16:24:16.606Z,24.37
2019-05-01T16:26:52.440Z,24.65
2019-05-01T16:29:28.875Z,24.51
2019-05-01T16:32:05.201Z,23.96
2019-05-01T16:34:52.418Z,23.68
2019-05-01T16:37:28.861Z,23.32
2019-05-01T16:40:24.898Z,23.18
2019-05-01T16:43:01.849Z,23.02
2019-05-01T16:45:39.744Z,22.99
2019-05-01T16:48:15.365Z,23.54
2019-05-01T16:50:51.674Z,23.33
2019-05-01T16:53:28.134Z,23.37
2019-05-01T16:56:04.018Z,22.64
2019-05-01T16:58:41.680Z,22.19
2019-05-01T17:01:38.104Z,21.34
2019-05-01T17:04:34.357Z,21.17
2019-05-01T17:07:16.871Z,20.77
2019-05-01T17:09:56.620Z,21.05
2019-05-01T17:12:34.692Z,20.73
2019-05-01T17:15:09.951Z,20.69
2019-05-01T17:17:45.166Z,20.66
2019-05-01T17:20:24.360Z,20.24
2019-05-01T17:22:59.624Z,20.22
2019-05-01T17:25:56.119Z,19.96
2019-05-01T17:28:32.856Z,19.65
2019-05-01T17:31:08.603Z,19.19
2019-05-01T17:33:55.610Z,19.10
2019-05-01T17:36:35.877Z,19.27
2019-05-01T17:39:11.423Z,18.91
2019-05-01T17:41:51.786Z,18.53
2019-05-01T17:44:26.929Z,18.19
2019-05-01T17:47:02.925Z,17.88
2019-05-01T17:49:41.074Z,17.63
2019-05-01T17:52:15.476Z,17.50
2019-05-01T17:54:51.578Z,17.32
2019-05-01T17:57:26.800Z,17.15
2019-05-01T18:00:05.349Z,17.02
2019-05-01T18:02:44.463Z,16.94
2019-05-01T18:05:23.571Z,16.80
2019-05-01T18:08:11.037Z,16.71
2019-05-01T18:10:46.265Z,16.67
2019-05-01T18:13:21.355Z,16.58
2019-05-01T18:15:56.493Z,16.47
2019-05-01T18:18:32.577Z,16.39
2019-05-01T18:21:09.340Z,16.31
2019-05-01T18:24:04.495Z,16.20
2019-05-01T18:26:46.997Z,16.19
2019-05-01T18:29:30.286Z,16.12
2019-05-01T18:32:10.185Z,16.03
2019-05-01T18:34:46.523Z,15.96
2019-05-01T18:37:35.156Z,15.86
2019-05-01T18:40:11.156Z,15.78
2019-05-01T18:42:46.265Z,15.69
2019-05-01T18:45:40.705Z,15.62
2019-05-01T18:48:18.329Z,15.54
2019-05-01T18:50:55.014Z,15.46
2019-05-01T18:53:30.876Z,15.39
2019-05-01T18:56:06.928Z,15.31
2019-05-01T18:58:42.396Z,15.23
2019-05-01T19:01:20.070Z,15.15
2019-05-01T19:03:55.654Z,15.09
2019-05-01T19:06:40.988Z,15.00
2019-05-01T19:09:15.153Z,14.93
2019-05-01T19:11:48.104Z,14.86
2019-05-01T19:14:28.819Z,14.77
2019-05-01T19:17:04.262Z,14.74
2019-05-01T19:19:42.056Z,14.65
2019-05-01T19:22:18.809Z,14.58
2019-05-01T19:24:57.116Z,14.51
2019-05-01T19:27:32.900Z,14.44
2019-05-01T19:30:14.388Z,14.35
2019-05-01T19:32:47.781Z,14.27
2019-05-01T19:35:29.630Z,14.24
2019-05-01T19:38:02.049Z,14.20
2019-05-01T19:40:42.970Z,14.16
2019-05-01T19:43:18.898Z,14.09
2019-05-01T19:45:55.381Z,14.02
2019-05-01T19:48:31.542Z,13.95
2019-05-01T19:51:07.541Z,13.88
2019-05-01T19:53:51.827Z,13.84
2019-05-01T19:56:24.914Z,13.81
2019-05-01T19:59:00.637Z,13.72
2019-05-01T20:01:38.407Z,13.68
2019-05-01T20:04:15.126Z,13.60
2019-05-01T20:06:52.176Z,13.54
2019-05-01T20:09:31.020Z,13.45
2019-05-01T20:12:08.647Z,13.45
2019-05-01T20:14:45.775Z,13.43
2019-05-01T20:17:22.427Z,13.40
2019-05-01T20:19:57.987Z,13.38
2019-05-01T20:22:35.805Z,13.33
2019-05-01T20:25:14.739Z,13.28
2019-05-01T20:27:53.064Z,13.28
2019-05-01T20:30:26.584Z,13.17
2019-05-01T20:33:03.749Z,13.10
2019-05-01T20:35:41.264Z,13.06
2019-05-01T20:38:16.404Z,13.03
2019-05-01T20:40:52.647Z,13.01
2019-05-01T20:43:27.783Z,12.94
2019-05-01T20:46:06.925Z,12.91
2019-05-01T20:48:41.783Z,12.89
2019-05-01T20:51:20.035Z,12.83
2019-05-01T20:53:54.252Z,12.79
2019-05-01T20:56:39.642Z,12.78
2019-05-01T20:59:14.716Z,12.73
2019-05-01T21:01:49.960Z,12.73
2019-05-01T21:04:27.159Z,12.68
2019-05-01T21:07:23.623Z,12.64
2019-05-01T21:10:01.285Z,12.60
2019-05-01T21:12:37.082Z,12.60
2019-05-01T21:15:13.317Z,12.58
2019-05-01T21:17:49.228Z,12.57
2019-05-01T21:20:26.588Z,12.53
2019-05-01T21:23:05.976Z,12.50
2019-05-01T21:25:38.728Z,12.44
2019-05-01T21:28:14.390Z,12.42
2019-05-01T21:30:49.480Z,12.35
2019-05-01T21:33:24.572Z,12.31
2019-05-01T21:36:03.903Z,12.27
2019-05-01T21:38:38.428Z,12.20
2019-05-01T21:41:15.022Z,12.13
2019-05-01T21:43:50.267Z,12.09
2019-05-01T21:46:25.941Z,12.04
2019-05-01T21:49:02.649Z,12.01
2019-05-01T21:51:42.297Z,11.96
2019-05-01T21:54:20.514Z,11.90
2019-05-01T21:56:53.227Z,11.91
2019-05-01T21:59:28.253Z,11.86
2019-05-01T22:02:05.438Z,11.79
2019-05-01T22:04:40.322Z,11.75
2019-05-01T22:07:15.403Z,11.73
2019-05-01T22:09:51.701Z,11.67
2019-05-01T22:12:26.889Z,11.63
2019-05-01T22:15:11.117Z,11.60
2019-05-01T22:17:53.046Z,11.50
2019-05-01T22:20:33.339Z,11.43
2019-05-01T22:23:11.341Z,11.36
2019-05-01T22:25:50.941Z,11.35
2019-05-01T22:28:34.462Z,11.29
2019-05-01T22:31:21.736Z,11.24
2019-05-01T22:33:56.900Z,11.18
2019-05-01T22:36:32.251Z,11.16
2019-05-01T22:39:08.119Z,11.13
2019-05-01T22:41:45.161Z,10.97
2019-05-01T22:44:20.238Z,10.97
2019-05-01T22:46:55.763Z,10.99
2019-05-01T22:49:31.154Z,10.82
2019-05-01T22:52:06.520Z,10.82
2019-05-01T22:54:44.799Z,10.80
2019-05-01T22:57:20.425Z,10.72
2019-05-01T22:59:55.832Z,10.67
2019-05-01T23:02:32.582Z,10.66
2019-05-01T23:05:09.837Z,10.54
2019-05-01T23:07:45.276Z,10.49
2019-05-01T23:10:21.352Z,10.41
2019-05-01T23:12:57.366Z,10.34
2019-05-01T23:15:32.808Z,10.33
2019-05-01T23:18:10.628Z,10.32
2019-05-01T23:20:44.626Z,10.26
2019-05-01T23:23:19.702Z,10.26
2019-05-01T23:25:56.018Z,10.20
2019-05-01T23:28:35.011Z,10.14
2019-05-01T23:31:08.701Z,10.17
2019-05-01T23:33:45.861Z,10.19
2019-05-01T23:36:23.602Z,10.14
2019-05-01T23:38:57.915Z,10.04
2019-05-01T23:41:45.169Z,10.02
2019-05-01T23:44:10.038Z,9.97
2019-05-01T23:46:45.062Z,9.92
2019-05-01T23:49:21.311Z,9.85
2019-05-01T23:51:58.595Z,9.81
2019-05-01T23:54:35.016Z,9.76
2019-05-01T23:57:10.111Z,9.73
2019-05-01T23:59:45.146Z,9.73
